Time;durP1;ratioP1;P1;durP2;ratioP2;P2;SDS_P1;SDS_P2;PMS_P1;PMS_P2;Temp;Humidity;BMP_temperature;BMP_pressure;BME280_temperature;BME280_humidity;BME280_pressure;Samples;Min_cycle;Max_cycle;Signal;HPM_P1;HPM_P2
2021/08/31 00:01:20;;;;;;;7.63;5.57;;;22.80;56.90;;;;;;6172356;28;81620;-65
2021/08/31 00:04:21;;;;;;;7.95;5.78;;;22.80;57.00;;;;;;6176425;28;80480;-64
2021/08/31 00:07:21;;;;;;;8.40;5.90;;;22.80;57.00;;;;;;6179650;28;80336;-65
2021/08/31 00:10:22;;;;;;;9.90;6.05;;;22.80;56.80;;;;;;6153007;28;80539;-65
2021/08/31 00:13:22;;;;;;;8.45;5.80;;;22.80;56.70;;;;;;6155451;28;81619;-64
2021/08/31 00:16:23;;;;;;;7.53;5.45;;;22.80;56.80;;;;;;6178261;28;80734;-64
2021/08/31 00:19:23;;;;;;;8.43;5.82;;;22.80;56.80;;;;;;6160184;28;80999;-64
2021/08/31 00:22:24;;;;;;;7.50;5.10;;;22.80;56.90;;;;;;6170477;28;81210;-64
2021/08/31 00:25:24;;;;;;;6.78;5.28;;;22.80;56.80;;;;;;6169652;28;82429;-66
2021/08/31 00:28:25;;;;;;;6.97;5.22;;;22.80;56.80;;;;;;6153686;28;82957;-64
2021/08/31 00:31:25;;;;;;;7.15;4.82;;;22.80;56.90;;;;;;6162352;28;81263;-65
2021/08/31 00:34:26;;;;;;;7.72;5.15;;;22.80;57.00;;;;;;6167634;28;81397;-64
2021/08/31 00:37:26;;;;;;;6.53;5.10;;;22.80;56.80;;;;;;6172617;28;81610;-64
2021/08/31 00:40:27;;;;;;;8.70;5.13;;;22.80;56.80;;;;;;6173649;28;82147;-65
2021/08/31 00:43:27;;;;;;;6.35;4.78;;;22.80;56.90;;;;;;6162459;28;81217;-64
2021/08/31 00:46:28;;;;;;;7.18;5.00;;;22.80;56.80;;;;;;6164071;28;80852;-65
2021/08/31 00:49:28;;;;;;;5.85;4.68;;;22.80;57.00;;;;;;6161009;28;81397;-64
2021/08/31 00:52:29;;;;;;;5.68;4.68;;;22.80;56.90;;;;;;6160545;28;81365;-64
2021/08/31 00:55:29;;;;;;;6.57;4.60;;;22.80;56.80;;;;;;6164065;28;80735;-64
2021/08/31 00:58:30;;;;;;;6.95;4.88;;;22.80;56.80;;;;;;6177748;28;81627;-64
2021/08/31 01:01:30;;;;;;;6.00;4.47;;;22.80;57.00;;;;;;6155299;28;81121;-64
2021/08/31 01:04:31;;;;;;;6.65;4.40;;;22.80;56.90;;;;;;6172295;28;81305;-64
2021/08/31 01:07:31;;;;;;;5.35;4.38;;;22.80;56.80;;;;;;6168204;28;81425;-64
2021/08/31 01:10:32;;;;;;;5.85;4.10;;;22.80;56.80;;;;;;6160546;28;80469;-64
2021/08/31 01:13:32;;;;;;;6.47;4.63;;;22.80;57.60;;;;;;6171951;28;80660;-65
2021/08/31 01:16:33;;;;;;;5.72;4.32;;;22.80;56.80;;;;;;6171234;28;80364;-65
2021/08/31 01:19:34;;;;;;;6.25;4.30;;;22.80;56.90;;;;;;6161187;28;81864;-65
2021/08/31 01:22:34;;;;;;;6.13;4.40;;;22.80;56.80;;;;;;6166711;28;81955;-64
2021/08/31 01:25:35;;;;;;;5.28;3.88;;;22.80;56.70;;;;;;6174770;28;80681;-64
2021/08/31 01:28:35;;;;;;;5.35;4.25;;;22.70;56.70;;;;;;6171731;28;80402;-64
2021/08/31 01:31:36;;;;;;;5.30;3.83;;;22.80;56.60;;;;;;6162873;28;80801;-64
2021/08/31 01:34:36;;;;;;;5.45;3.92;;;22.80;56.70;;;;;;6162396;28;81960;-64
2021/08/31 01:37:37;;;;;;;4.10;3.70;;;22.80;56.60;;;;;;6162238;28;80296;-64
2021/08/31 01:40:37;;;;;;;4.80;3.85;;;22.70;56.40;;;;;;6169122;28;80449;-64
2021/08/31 01:43:38;;;;;;;4.25;3.63;;;22.70;56.50;;;;;;6163712;28;80602;-64
2021/08/31 01:46:38;;;;;;;5.70;4.30;;;22.70;56.50;;;;;;6168846;28;81300;-64
2021/08/31 01:49:39;;;;;;;4.97;3.55;;;22.70;56.60;;;;;;6170747;28;80603;-65
2021/08/31 01:52:40;;;;;;;4.88;3.65;;;22.70;56.50;;;;;;6153636;28;81762;-64
2021/08/31 01:55:40;;;;;;;4.93;3.85;;;22.70;56.60;;;;;;6154694;28;80780;-65
2021/08/31 01:58:41;;;;;;;4.93;4.03;;;22.70;56.60;;;;;;6176773;28;80385;-64
2021/08/31 02:01:41;;;;;;;5.78;3.45;;;22.70;56.60;;;;;;6158349;28;80488;-64
2021/08/31 02:04:42;;;;;;;4.22;3.78;;;22.70;56.60;;;;;;6156051;28;80465;-64
2021/08/31 02:07:42;;;;;;;3.80;3.42;;;22.70;56.60;;;;;;6157918;28;80696;-65
2021/08/31 02:10:43;;;;;;;4.03;3.30;;;22.70;56.70;;;;;;6170171;28;82949;-64
2021/08/31 02:13:43;;;;;;;4.57;3.83;;;22.70;56.60;;;;;;6167556;28;80462;-65
2021/08/31 02:16:44;;;;;;;3.40;3.10;;;22.70;56.60;;;;;;6164405;28;80866;-65
2021/08/31 02:19:44;;;;;;;6.40;3.58;;;22.70;56.80;;;;;;6167644;28;80338;-64
2021/08/31 02:22:45;;;;;;;6.93;4.28;;;22.70;56.60;;;;;;6169420;28;82225;-64
2021/08/31 02:25:45;;;;;;;5.72;3.42;;;22.70;56.50;;;;;;6164540;28;80586;-64
2021/08/31 02:28:46;;;;;;;5.00;3.30;;;22.70;56.50;;;;;;6161141;28;81867;-64
2021/08/31 02:31:46;;;;;;;4.55;3.70;;;22.70;56.50;;;;;;6161646;28;80444;-64
2021/08/31 02:34:47;;;;;;;4.75;3.58;;;22.70;56.60;;;;;;6168147;28;80453;-64
2021/08/31 02:37:47;;;;;;;4.68;3.30;;;22.70;56.60;;;;;;6166750;28;81328;-64
2021/08/31 02:40:48;;;;;;;4.72;3.47;;;22.70;56.60;;;;;;6171987;28;82000;-64
2021/08/31 02:43:48;;;;;;;3.90;3.47;;;22.70;56.60;;;;;;6160578;28;80558;-64
2021/08/31 02:46:49;;;;;;;4.25;3.17;;;22.70;56.40;;;;;;6175512;28;81601;-63
2021/08/31 02:49:49;;;;;;;4.97;3.60;;;22.60;56.50;;;;;;6165228;28;81355;-63
2021/08/31 02:52:50;;;;;;;4.18;3.53;;;22.60;56.40;;;;;;6162329;28;80613;-63
2021/08/31 02:55:50;;;;;;;4.05;3.42;;;22.70;56.70;;;;;;6169870;28;81018;-63
2021/08/31 02:58:50;;;;;;;6.15;3.47;;;22.70;56.50;;;;;;6171052;28;80749;-63
2021/08/31 03:02:04;;;;;;;4.30;3.35;;;22.60;56.40;;;;;;6201688;28;83037;-63
2021/08/31 03:05:05;;;;;;;3.92;3.25;;;22.70;56.60;;;;;;6178702;28;80520;-63
2021/08/31 03:08:05;;;;;;;4.38;3.15;;;22.60;56.40;;;;;;6166299;28;84224;-63
2021/08/31 03:11:06;;;;;;;4.82;3.30;;;22.60;56.50;;;;;;6177551;28;80883;-63
2021/08/31 03:14:06;;;;;;;3.85;3.42;;;22.60;56.40;;;;;;6167371;28;80507;-63
2021/08/31 03:17:07;;;;;;;4.32;3.47;;;22.60;56.50;;;;;;6157834;28;80392;-63
2021/08/31 03:20:07;;;;;;;4.07;3.22;;;22.60;56.40;;;;;;6175103;28;80634;-63
2021/08/31 03:23:08;;;;;;;4.82;3.40;;;22.60;56.60;;;;;;6171097;28;81738;-63
2021/08/31 03:26:09;;;;;;;3.47;3.10;;;22.60;56.60;;;;;;6174167;28;81181;-63
2021/08/31 03:29:09;;;;;;;5.22;3.53;;;22.60;56.70;;;;;;6183964;28;83312;-63
2021/08/31 03:32:10;;;;;;;4.00;3.50;;;22.60;56.60;;;;;;6174214;28;81272;-65
2021/08/31 03:35:12;;;;;;;4.55;3.20;;;22.60;56.80;;;;;;6169128;28;80401;-64
2021/08/31 03:38:12;;;;;;;6.55;3.42;;;22.60;56.60;;;;;;6173428;28;80941;-64
2021/08/31 03:41:13;;;;;;;4.93;3.20;;;22.60;56.80;;;;;;6166663;28;80567;-65
2021/08/31 03:44:15;;;;;;;3.58;2.90;;;22.60;56.70;;;;;;6158409;28;80452;-63
2021/08/31 03:47:16;;;;;;;4.20;3.28;;;22.60;56.50;;;;;;6159390;28;81911;-63
2021/08/31 03:50:16;;;;;;;3.90;3.33;;;22.60;56.60;;;;;;6176221;28;80279;-63
2021/08/31 03:53:17;;;;;;;3.30;2.65;;;22.60;56.60;;;;;;6164304;28;81691;-64
2021/08/31 03:56:17;;;;;;;5.47;3.17;;;22.60;56.60;;;;;;6170547;28;80814;-64
2021/08/31 03:59:18;;;;;;;6.28;3.25;;;22.60;56.80;;;;;;6172851;28;80428;-64
2021/08/31 04:02:21;;;;;;;3.75;3.13;;;22.60;56.80;;;;;;6173743;28;80678;-64
2021/08/31 04:05:21;;;;;;;5.00;3.40;;;22.60;56.70;;;;;;6158905;28;80523;-63
2021/08/31 04:08:22;;;;;;;3.63;3.08;;;22.60;57.00;;;;;;6149721;28;80472;-63
2021/08/31 04:11:22;;;;;;;4.00;3.10;;;22.60;56.80;;;;;;6169727;28;81997;-63
2021/08/31 04:14:23;;;;;;;3.83;3.08;;;22.60;57.00;;;;;;6173801;28;81153;-63
2021/08/31 04:17:23;;;;;;;4.47;3.22;;;22.60;57.10;;;;;;6176185;28;80702;-66
2021/08/31 04:20:24;;;;;;;4.30;3.22;;;22.60;57.00;;;;;;6165213;28;80910;-66
2021/08/31 04:23:24;;;;;;;3.35;3.05;;;22.60;57.00;;;;;;6155606;28;80312;-65
2021/08/31 04:26:25;;;;;;;3.78;2.90;;;22.60;57.30;;;;;;6157786;28;80617;-63
2021/08/31 04:29:25;;;;;;;4.07;3.20;;;22.60;57.30;;;;;;6162032;28;80746;-64
2021/08/31 04:32:26;;;;;;;4.00;2.95;;;22.50;57.60;;;;;;6158206;28;81280;-64
2021/08/31 04:35:26;;;;;;;5.45;3.55;;;22.60;57.20;;;;;;6162396;28;80451;-66
2021/08/31 04:38:27;;;;;;;3.80;3.40;;;22.60;57.90;;;;;;6163923;28;82622;-65
2021/08/31 04:41:27;;;;;;;4.57;3.83;;;22.50;57.60;;;;;;6158211;28;81554;-65
2021/08/31 04:44:28;;;;;;;3.78;3.10;;;22.60;57.50;;;;;;6157703;28;80713;-64
2021/08/31 04:47:28;;;;;;;4.38;3.08;;;22.60;57.80;;;;;;6174048;28;80395;-65
2021/08/31 04:50:29;;;;;;;3.35;3.03;;;22.60;57.50;;;;;;6170273;28;82463;-65
2021/08/31 04:53:29;;;;;;;4.43;3.15;;;22.60;57.60;;;;;;6157188;28;82262;-65
2021/08/31 04:56:30;;;;;;;3.42;2.85;;;22.60;57.70;;;;;;6158163;28;81742;-64
2021/08/31 04:59:30;;;;;;;4.28;3.47;;;22.60;57.80;;;;;;6157816;28;80517;-65
2021/08/31 05:02:32;;;;;;;3.50;3.00;;;22.60;57.80;;;;;;6167601;28;80610;-64
2021/08/31 05:05:33;;;;;;;6.85;3.17;;;22.60;58.10;;;;;;6152632;28;80749;-64
2021/08/31 05:08:33;;;;;;;4.88;3.55;;;22.60;58.00;;;;;;6173211;28;80493;-64
2021/08/31 05:11:34;;;;;;;4.53;3.10;;;22.60;58.70;;;;;;6160711;28;81382;-65
2021/08/31 05:14:35;;;;;;;3.35;2.92;;;22.60;58.20;;;;;;6163037;28;80448;-64
2021/08/31 05:17:35;;;;;;;3.88;3.22;;;22.60;59.30;;;;;;6160172;28;81469;-64
2021/08/31 05:20:36;;;;;;;3.80;3.10;;;22.60;58.80;;;;;;6159392;28;80637;-64
2021/08/31 05:23:36;;;;;;;4.32;2.75;;;22.60;59.50;;;;;;6157458;28;81062;-65
2021/08/31 05:26:37;;;;;;;3.40;2.70;;;22.60;59.70;;;;;;6171397;28;80441;-64
2021/08/31 05:29:37;;;;;;;6.63;2.80;;;22.50;59.60;;;;;;6169954;28;80621;-65
2021/08/31 05:32:38;;;;;;;4.47;2.95;;;22.60;59.40;;;;;;6154690;28;82847;-64
2021/08/31 05:35:38;;;;;;;3.97;3.17;;;22.60;59.80;;;;;;6169288;28;81940;-64
2021/08/31 05:38:39;;;;;;;4.28;3.10;;;22.60;59.30;;;;;;6173013;28;80350;-64
2021/08/31 05:41:39;;;;;;;3.80;3.00;;;22.70;59.30;;;;;;6163855;28;82205;-65
2021/08/31 05:44:40;;;;;;;4.35;3.17;;;22.70;59.20;;;;;;6151535;28;81486;-66
2021/08/31 05:47:40;;;;;;;3.67;2.83;;;22.70;59.20;;;;;;6157371;28;81564;-66
2021/08/31 05:50:41;;;;;;;4.10;3.35;;;22.70;58.70;;;;;;6153391;28;81218;-67
2021/08/31 05:53:41;;;;;;;3.30;3.00;;;22.70;59.40;;;;;;6158670;28;81211;-65
2021/08/31 05:56:42;;;;;;;4.28;3.10;;;22.70;58.90;;;;;;6154151;28;81139;-65
2021/08/31 05:59:42;;;;;;;7.53;3.58;;;22.70;58.90;;;;;;6151375;28;80869;-65
2021/08/31 06:02:44;;;;;;;5.00;3.45;;;22.70;59.10;;;;;;6157190;28;81401;-64
2021/08/31 06:05:44;;;;;;;4.28;3.35;;;22.70;58.60;;;;;;6164026;28;80522;-66
2021/08/31 06:08:45;;;;;;;4.85;3.47;;;22.70;59.00;;;;;;6161425;28;80538;-65
2021/08/31 06:11:45;;;;;;;5.13;3.22;;;22.60;58.60;;;;;;6162166;28;80622;-64
2021/08/31 06:14:46;;;;;;;7.10;3.10;;;22.70;59.00;;;;;;6161810;28;80054;-64
2021/08/31 06:17:46;;;;;;;3.28;2.97;;;22.70;58.80;;;;;;6159487;28;81391;-65
2021/08/31 06:20:47;;;;;;;5.90;3.15;;;22.70;58.80;;;;;;6161840;28;80763;-64
2021/08/31 06:23:47;;;;;;;3.35;2.97;;;22.60;58.60;;;;;;6159568;28;80554;-65
2021/08/31 06:26:48;;;;;;;4.80;3.30;;;22.60;58.60;;;;;;6156639;28;81708;-64
2021/08/31 06:29:48;;;;;;;4.07;2.90;;;22.70;58.60;;;;;;6158515;28;81063;-67
2021/08/31 06:32:49;;;;;;;7.28;2.70;;;22.70;58.80;;;;;;6159069;28;81895;-67
2021/08/31 06:35:49;;;;;;;4.50;3.45;;;22.70;58.90;;;;;;6155235;28;81630;-66
2021/08/31 06:38:50;;;;;;;3.97;3.28;;;22.70;58.90;;;;;;6166503;28;80502;-65
2021/08/31 06:41:50;;;;;;;8.23;4.18;;;22.60;58.50;;;;;;6155327;28;82505;-64
2021/08/31 06:44:51;;;;;;;8.13;3.95;;;22.60;58.60;;;;;;6170560;28;80413;-67
2021/08/31 06:47:51;;;;;;;5.07;4.30;;;22.60;58.70;;;;;;6162198;28;80373;-64
2021/08/31 06:50:52;;;;;;;7.60;3.65;;;22.70;58.70;;;;;;6157973;28;80495;-63
2021/08/31 06:53:52;;;;;;;5.00;3.38;;;22.60;58.50;;;;;;6156490;28;82355;-64
2021/08/31 06:56:53;;;;;;;6.18;4.07;;;22.60;58.80;;;;;;6167657;28;80270;-63
2021/08/31 06:59:53;;;;;;;3.15;2.85;;;22.60;58.80;;;;;;6157770;28;82001;-63
2021/08/31 07:02:54;;;;;;;4.28;3.50;;;22.60;59.00;;;;;;6155726;28;83270;-63
2021/08/31 07:05:54;;;;;;;4.93;3.42;;;22.60;58.80;;;;;;6152027;28;83383;-64
2021/08/31 07:08:55;;;;;;;4.85;2.83;;;22.60;59.00;;;;;;6156176;28;80414;-65
2021/08/31 07:11:56;;;;;;;4.13;3.17;;;22.60;58.70;;;;;;6156327;28;80576;-63
2021/08/31 07:14:58;;;;;;;3.78;3.03;;;22.60;58.70;;;;;;6160414;28;80574;-62
2021/08/31 07:17:59;;;;;;;4.05;3.13;;;22.60;58.60;;;;;;6159403;28;80964;-62
2021/08/31 07:20:59;;;;;;;4.30;3.30;;;22.60;58.80;;;;;;6147521;28;80699;-65
2021/08/31 07:24:00;;;;;;;3.05;2.72;;;22.60;59.00;;;;;;6163908;28;80973;-66
2021/08/31 07:27:00;;;;;;;3.40;2.97;;;22.60;59.10;;;;;;6155477;28;80803;-68
2021/08/31 07:30:01;;;;;;;6.95;3.40;;;22.60;59.00;;;;;;6166926;28;81405;-69
2021/08/31 07:33:03;;;;;;;4.82;3.60;;;22.60;59.10;;;;;;6155519;28;83610;-67
2021/08/31 07:36:04;;;;;;;5.03;3.20;;;22.60;59.20;;;;;;6171291;28;80411;-67
2021/08/31 07:39:04;;;;;;;4.05;3.30;;;22.60;59.10;;;;;;6156081;28;82384;-68
2021/08/31 07:42:05;;;;;;;5.07;3.20;;;22.60;59.00;;;;;;6157078;28;83817;-66
2021/08/31 07:45:08;;;;;;;6.05;3.10;;;22.60;59.20;;;;;;6163420;28;80822;-66
2021/08/31 07:48:08;;;;;;;4.32;3.00;;;22.60;59.40;;;;;;6160832;28;81053;-66
2021/08/31 07:51:09;;;;;;;6.28;3.50;;;22.60;59.60;;;;;;6161410;28;81132;-64
2021/08/31 07:54:09;;;;;;;5.93;3.40;;;22.60;59.90;;;;;;6156102;28;80990;-62
2021/08/31 07:57:09;;;;;;;4.15;3.17;;;22.60;59.70;;;;;;6161623;28;81870;-62
2021/08/31 08:00:10;;;;;;;5.22;3.45;;;22.60;59.70;;;;;;6163802;28;81440;-63
2021/08/31 08:03:10;;;;;;;6.00;3.95;;;22.50;59.20;;;;;;6175616;28;80538;-64
2021/08/31 08:06:11;;;;;;;4.88;3.20;;;22.50;59.30;;;;;;6172341;28;80468;-67
2021/08/31 08:09:11;;;;;;;7.88;3.15;;;22.50;59.80;;;;;;6160959;28;80272;-63
2021/08/31 08:12:12;;;;;;;3.45;2.72;;;22.50;60.10;;;;;;6159477;28;83729;-63
2021/08/31 08:15:13;;;;;;;6.53;3.70;;;22.50;60.10;;;;;;6166965;28;80662;-64
2021/08/31 08:18:13;;;;;;;4.72;3.45;;;22.50;61.00;;;;;;6164549;28;81298;-63
2021/08/31 08:21:14;;;;;;;4.50;3.30;;;22.50;61.40;;;;;;6157522;28;81379;-63
2021/08/31 08:24:14;;;;;;;5.75;3.35;;;22.50;60.50;;;;;;6162679;28;80723;-63
2021/08/31 08:27:15;;;;;;;4.20;3.17;;;22.50;60.70;;;;;;6169394;28;81248;-63
2021/08/31 08:30:15;;;;;;;7.65;3.40;;;22.50;60.90;;;;;;6171618;28;80604;-63
2021/08/31 08:33:15;;;;;;;4.68;3.28;;;22.60;60.50;;;;;;6172292;28;81702;-63
2021/08/31 08:36:17;;;;;;;5.10;3.42;;;22.60;60.60;;;;;;6147278;28;80983;-65
2021/08/31 08:39:17;;;;;;;4.15;3.17;;;22.60;60.70;;;;;;6161063;28;81080;-64
2021/08/31 08:42:18;;;;;;;4.45;3.28;;;22.50;60.30;;;;;;6159437;28;80590;-63
2021/08/31 08:45:18;;;;;;;3.63;2.97;;;22.50;60.20;;;;;;6158981;28;80707;-63
2021/08/31 08:48:19;;;;;;;4.40;3.33;;;22.50;60.60;;;;;;6155916;28;80371;-63
2021/08/31 08:51:19;;;;;;;5.35;3.15;;;22.50;60.30;;;;;;6158364;28;80950;-63
2021/08/31 08:54:20;;;;;;;4.25;3.03;;;22.50;60.20;;;;;;6159250;28;80287;-65
2021/08/31 08:57:20;;;;;;;4.85;3.03;;;22.50;60.60;;;;;;6160585;28;81053;-65
2021/08/31 09:00:21;;;;;;;7.43;3.50;;;22.60;60.60;;;;;;6166322;28;80674;-63
2021/08/31 09:03:21;;;;;;;6.43;2.90;;;22.50;61.10;;;;;;6152658;28;80569;-62
2021/08/31 09:06:22;;;;;;;4.50;3.00;;;22.50;60.40;;;;;;6157008;28;80531;-63
2021/08/31 09:09:22;;;;;;;6.93;3.42;;;22.50;60.70;;;;;;6157063;28;80789;-61
2021/08/31 09:12:23;;;;;;;6.82;3.10;;;22.60;60.80;;;;;;6159406;28;80376;-61
2021/08/31 09:15:23;;;;;;;4.80;2.92;;;22.60;60.70;;;;;;6165066;28;80861;-65
2021/08/31 09:18:25;;;;;;;4.32;2.85;;;22.60;60.50;;;;;;6158082;28;81450;-65
2021/08/31 09:21:26;;;;;;;4.43;2.95;;;22.60;60.10;;;;;;6182574;28;80615;-65
2021/08/31 09:24:26;;;;;;;6.28;3.13;;;22.50;60.00;;;;;;6170021;28;81509;-64
2021/08/31 09:27:27;;;;;;;4.43;2.58;;;22.50;60.10;;;;;;6160053;28;81427;-65
2021/08/31 09:30:27;;;;;;;4.03;2.55;;;22.60;60.50;;;;;;6156261;28;81388;-65
2021/08/31 09:33:29;;;;;;;4.03;2.65;;;22.60;60.50;;;;;;6153121;28;80502;-65
2021/08/31 09:36:29;;;;;;;5.90;2.80;;;22.60;60.20;;;;;;6155005;28;81536;-65
2021/08/31 09:39:30;;;;;;;4.22;2.60;;;22.60;60.20;;;;;;6154765;28;81172;-64
2021/08/31 09:42:32;;;;;;;4.25;2.95;;;22.60;60.20;;;;;;6158511;28;80605;-67
2021/08/31 09:45:32;;;;;;;7.50;3.00;;;22.60;60.60;;;;;;6158853;28;81071;-64
2021/08/31 09:48:33;;;;;;;8.38;3.00;;;22.60;60.90;;;;;;6155751;28;82428;-66
2021/08/31 09:51:33;;;;;;;4.72;3.03;;;22.70;60.70;;;;;;6162508;28;81453;-64
2021/08/31 09:54:33;;;;;;;6.53;3.60;;;22.70;60.70;;;;;;6165307;28;80410;-65
2021/08/31 09:57:35;;;;;;;5.70;3.63;;;22.70;62.20;;;;;;6155501;28;80641;-64
2021/08/31 10:00:37;;;;;;;8.90;3.38;;;22.70;64.10;;;;;;6156323;28;80597;-64
2021/08/31 10:03:39;;;;;;;6.72;3.17;;;22.70;64.40;;;;;;6158129;28;81089;-65
2021/08/31 10:06:39;;;;;;;5.13;3.38;;;22.70;65.00;;;;;;6158850;28;81481;-65
2021/08/31 10:09:40;;;;;;;7.80;5.10;;;22.70;63.90;;;;;;6167183;28;87748;-66
2021/08/31 10:12:40;;;;;;;27.13;12.00;;;22.70;65.00;;;;;;6155593;28;80511;-67
2021/08/31 10:15:41;;;;;;;50.17;25.05;;;22.80;66.70;;;;;;6151005;28;83694;-65
2021/08/31 10:18:41;;;;;;;44.08;22.00;;;22.80;69.70;;;;;;6151972;28;83106;-66
2021/08/31 10:21:42;;;;;;;45.85;21.38;;;22.80;69.20;;;;;;6156492;28;83084;-66
2021/08/31 10:24:42;;;;;;;44.90;22.88;;;22.80;68.80;;;;;;6160889;28;83832;-65
2021/08/31 10:27:44;;;;;;;46.85;21.63;;;22.80;68.70;;;;;;6166223;28;84073;-66
2021/08/31 10:30:44;;;;;;;39.80;20.55;;;22.80;68.60;;;;;;6160559;28;84364;-66
2021/08/31 10:33:45;;;;;;;36.40;20.70;;;22.80;68.40;;;;;;6155143;28;83203;-66
2021/08/31 10:36:45;;;;;;;31.80;18.02;;;22.80;68.80;;;;;;6151542;28;83543;-66
2021/08/31 10:39:46;;;;;;;34.35;18.08;;;22.80;67.80;;;;;;6152749;28;83267;-65
2021/08/31 10:42:46;;;;;;;32.03;17.38;;;22.70;67.70;;;;;;6155965;28;83862;-66
2021/08/31 10:45:47;;;;;;;30.95;15.55;;;22.70;67.60;;;;;;6162299;28;82955;-65
2021/08/31 10:48:47;;;;;;;25.92;15.10;;;22.70;67.40;;;;;;6149267;28;85471;-67
2021/08/31 10:51:48;;;;;;;26.98;14.45;;;22.70;67.10;;;;;;6148071;28;84249;-64
2021/08/31 10:54:48;;;;;;;25.85;13.98;;;22.70;66.70;;;;;;6149282;28;83657;-65
2021/08/31 10:57:49;;;;;;;21.42;12.68;;;22.80;66.40;;;;;;6151337;28;83252;-66
2021/08/31 11:00:49;;;;;;;17.40;11.30;;;22.70;66.70;;;;;;6168688;28;83035;-65
2021/08/31 11:03:50;;;;;;;22.27;11.07;;;22.70;66.70;;;;;;6152216;28;83630;-64
2021/08/31 11:06:50;;;;;;;20.02;10.93;;;22.70;66.60;;;;;;6159173;28;83181;-66
2021/08/31 11:09:51;;;;;;;18.73;10.48;;;22.80;66.30;;;;;;6156910;28;84607;-63
2021/08/31 11:12:51;;;;;;;20.73;10.23;;;22.70;66.60;;;;;;6149322;28;83519;-64
2021/08/31 11:15:52;;;;;;;16.83;10.35;;;22.70;66.00;;;;;;6153276;28;84212;-64
2021/08/31 11:18:52;;;;;;;16.55;8.88;;;22.80;66.00;;;;;;6169672;28;83556;-63
2021/08/31 11:21:53;;;;;;;14.73;9.18;;;22.70;66.10;;;;;;6162127;28;83223;-65
2021/08/31 11:24:53;;;;;;;13.82;8.18;;;22.70;65.70;;;;;;6161050;28;80440;-64
2021/08/31 11:27:54;;;;;;;14.73;8.35;;;22.80;66.30;;;;;;6151385;28;81846;-65
2021/08/31 11:30:54;;;;;;;16.75;8.15;;;22.70;66.10;;;;;;6156200;28;80807;-64
2021/08/31 11:33:55;;;;;;;9.15;6.95;;;22.70;65.70;;;;;;6158268;28;80892;-65
2021/08/31 11:36:56;;;;;;;12.88;6.65;;;22.80;65.10;;;;;;6157368;28;81179;-63
2021/08/31 11:39:56;;;;;;;12.68;6.40;;;22.80;64.80;;;;;;6162289;28;80635;-63
2021/08/31 11:42:57;;;;;;;10.45;6.15;;;22.70;64.30;;;;;;6156670;28;80456;-64
2021/08/31 11:45:57;;;;;;;12.68;6.20;;;22.70;64.20;;;;;;6159883;28;81456;-64
2021/08/31 11:48:57;;;;;;;9.55;5.05;;;22.70;64.20;;;;;;6165968;28;80653;-65
2021/08/31 11:51:59;;;;;;;13.20;5.65;;;22.60;64.20;;;;;;6163091;28;82030;-64
2021/08/31 11:54:59;;;;;;;8.15;5.28;;;22.60;63.90;;;;;;6159134;28;80432;-64
2021/08/31 11:58:00;;;;;;;7.50;4.90;;;22.60;63.90;;;;;;6157459;28;86388;-64
2021/08/31 12:01:00;;;;;;;7.88;4.90;;;22.60;64.00;;;;;;6150322;28;81543;-62
2021/08/31 12:04:01;;;;;;;8.00;4.45;;;22.70;64.00;;;;;;6164384;28;81021;-64
2021/08/31 12:07:01;;;;;;;9.93;5.18;;;22.70;63.50;;;;;;6167597;28;80367;-64
2021/08/31 12:10:02;;;;;;;8.43;4.45;;;22.70;63.30;;;;;;6155841;28;80918;-64
2021/08/31 12:13:02;;;;;;;8.13;4.32;;;22.70;63.40;;;;;;6157409;28;81029;-64
2021/08/31 12:16:03;;;;;;;6.07;4.20;;;22.70;63.40;;;;;;6165950;28;81194;-64
2021/08/31 12:19:03;;;;;;;8.23;4.40;;;22.60;63.30;;;;;;6167240;28;80933;-63
2021/08/31 12:22:04;;;;;;;7.95;5.10;;;22.60;63.50;;;;;;6169539;28;81760;-64
2021/08/31 12:25:04;;;;;;;8.38;4.45;;;22.60;63.60;;;;;;6154322;28;82549;-65
2021/08/31 12:28:05;;;;;;;8.27;4.85;;;22.70;63.60;;;;;;6160693;28;80594;-64
2021/08/31 12:31:05;;;;;;;7.20;4.90;;;22.70;63.90;;;;;;6164442;28;82593;-64
2021/08/31 12:34:06;;;;;;;9.98;4.60;;;22.70;63.70;;;;;;6161395;28;80514;-64
2021/08/31 12:37:06;;;;;;;9.63;5.00;;;22.70;63.70;;;;;;6174172;28;80331;-64
2021/08/31 12:40:07;;;;;;;10.38;4.82;;;22.70;63.90;;;;;;6159719;28;80122;-64
2021/08/31 12:43:07;;;;;;;9.85;4.97;;;22.70;63.80;;;;;;6160484;28;83730;-63
2021/08/31 12:46:08;;;;;;;8.45;4.85;;;22.70;63.70;;;;;;6154146;28;81677;-64
2021/08/31 12:49:11;;;;;;;8.63;4.50;;;22.70;63.80;;;;;;6156528;28;81935;-63
2021/08/31 12:52:11;;;;;;;7.20;4.43;;;22.70;63.80;;;;;;6161087;28;80577;-63
2021/08/31 12:55:12;;;;;;;11.15;5.22;;;22.70;63.80;;;;;;6171257;28;80521;-63
2021/08/31 12:58:12;;;;;;;8.07;4.57;;;22.70;63.70;;;;;;6158750;28;80922;-63
2021/08/31 13:01:13;;;;;;;7.03;4.47;;;22.70;63.60;;;;;;6157934;28;81234;-63
2021/08/31 13:04:14;;;;;;;7.03;4.32;;;22.70;64.00;;;;;;6156372;28;80700;-64
2021/08/31 13:07:14;;;;;;;12.07;4.60;;;22.70;63.60;;;;;;6158470;28;80396;-65
2021/08/31 13:10:15;;;;;;;7.97;4.00;;;22.70;63.60;;;;;;6167024;28;80362;-64
2021/08/31 13:13:15;;;;;;;14.30;4.38;;;22.60;63.40;;;;;;6165918;28;80503;-64
2021/08/31 13:16:16;;;;;;;7.93;4.43;;;22.60;63.40;;;;;;6155740;28;83164;-65
2021/08/31 13:19:16;;;;;;;5.47;3.95;;;22.70;63.50;;;;;;6168603;28;80256;-64
2021/08/31 13:22:19;;;;;;;5.97;3.60;;;22.60;63.30;;;;;;6158180;28;80653;-62
2021/08/31 13:25:20;;;;;;;5.20;3.75;;;22.60;63.40;;;;;;6153143;28;80405;-63
2021/08/31 13:28:20;;;;;;;6.28;3.90;;;22.60;63.30;;;;;;6159052;28;81216;-65
2021/08/31 13:31:21;;;;;;;6.07;3.60;;;22.70;63.60;;;;;;6154926;28;80149;-63
2021/08/31 13:34:21;;;;;;;7.85;3.20;;;22.60;63.20;;;;;;6156716;28;80776;-62
2021/08/31 13:37:22;;;;;;;7.93;3.38;;;22.60;63.30;;;;;;6158775;28;81180;-64
2021/08/31 13:40:22;;;;;;;7.28;4.03;;;22.60;63.30;;;;;;6156018;28;81346;-63
2021/08/31 13:43:23;;;;;;;6.97;3.55;;;22.50;63.40;;;;;;6152762;28;80886;-63
2021/08/31 13:46:23;;;;;;;5.47;3.35;;;22.60;63.80;;;;;;6152895;28;80841;-63
2021/08/31 13:49:24;;;;;;;4.88;3.08;;;22.60;63.90;;;;;;6155636;28;80400;-63
2021/08/31 13:52:24;;;;;;;6.15;3.60;;;22.60;63.40;;;;;;6163472;28;82406;-64
2021/08/31 13:55:25;;;;;;;6.03;3.67;;;22.70;63.60;;;;;;6158617;28;81979;-63
2021/08/31 13:58:25;;;;;;;6.75;3.30;;;22.70;63.50;;;;;;6153662;28;80671;-64
2021/08/31 14:01:26;;;;;;;6.00;3.13;;;22.70;63.40;;;;;;6156204;28;81138;-64
2021/08/31 14:04:26;;;;;;;5.65;3.05;;;22.70;63.40;;;;;;6153636;28;80434;-64
2021/08/31 14:07:27;;;;;;;7.88;3.25;;;22.70;63.60;;;;;;6155854;28;80383;-65
2021/08/31 14:10:27;;;;;;;4.03;2.55;;;22.70;63.40;;;;;;6159612;28;80936;-63
2021/08/31 14:13:28;;;;;;;3.55;2.72;;;22.70;63.80;;;;;;6160927;28;81122;-63
2021/08/31 14:16:28;;;;;;;3.63;2.53;;;22.70;63.40;;;;;;6155700;28;80644;-64
2021/08/31 14:19:29;;;;;;;3.92;2.95;;;22.70;63.40;;;;;;6157145;28;80496;-64
2021/08/31 14:22:29;;;;;;;4.10;2.70;;;22.70;63.10;;;;;;6157764;28;81798;-64
2021/08/31 14:25:30;;;;;;;3.92;2.67;;;22.70;63.30;;;;;;6158347;28;80952;-64
2021/08/31 14:28:30;;;;;;;4.60;3.08;;;22.70;63.20;;;;;;6155351;28;80471;-64
2021/08/31 14:31:31;;;;;;;5.35;2.85;;;22.70;63.40;;;;;;6157566;28;80346;-64
2021/08/31 14:34:31;;;;;;;5.40;3.20;;;22.70;63.30;;;;;;6155592;28;82721;-64
2021/08/31 14:37:32;;;;;;;5.70;3.03;;;22.70;63.40;;;;;;6156209;28;80839;-64
2021/08/31 14:40:32;;;;;;;4.43;2.88;;;22.70;63.30;;;;;;6162220;28;80475;-64
2021/08/31 14:43:33;;;;;;;7.63;2.53;;;22.80;63.50;;;;;;6162897;28;81014;-65
2021/08/31 14:46:33;;;;;;;5.72;3.17;;;22.70;63.40;;;;;;6161244;28;80244;-66
2021/08/31 14:49:34;;;;;;;4.90;2.70;;;22.80;63.50;;;;;;6169811;28;81599;-65
2021/08/31 14:52:34;;;;;;;4.65;2.85;;;22.70;63.70;;;;;;6166235;28;81284;-64
2021/08/31 14:55:35;;;;;;;6.65;3.05;;;22.70;64.00;;;;;;6167005;28;81472;-62
2021/08/31 14:58:35;;;;;;;6.65;3.10;;;22.70;64.20;;;;;;6180474;28;80654;-63
2021/08/31 15:01:37;;;;;;;5.85;2.63;;;22.70;63.90;;;;;;6167103;28;80711;-63
2021/08/31 15:04:37;;;;;;;6.22;2.75;;;22.70;64.40;;;;;;6177851;28;81040;-63
2021/08/31 15:07:38;;;;;;;4.05;2.60;;;22.70;64.60;;;;;;6164706;28;80467;-64
2021/08/31 15:10:39;;;;;;;13.77;3.08;;;22.70;64.40;;;;;;6163633;28;81102;-63
2021/08/31 15:13:39;;;;;;;4.75;3.03;;;22.70;64.40;;;;;;6171802;28;82546;-64
2021/08/31 15:16:40;;;;;;;4.00;3.20;;;22.70;64.50;;;;;;6166908;28;80377;-64
2021/08/31 15:19:40;;;;;;;7.82;3.03;;;22.70;64.20;;;;;;6168011;28;80611;-63
2021/08/31 15:22:40;;;;;;;5.93;3.30;;;22.70;64.40;;;;;;6173199;28;80610;-63
2021/08/31 15:25:41;;;;;;;4.05;2.90;;;22.70;64.40;;;;;;6177785;28;81016;-63
2021/08/31 15:28:41;;;;;;;4.43;3.17;;;22.70;64.50;;;;;;6174341;28;80590;-62
2021/08/31 15:31:43;;;;;;;5.70;3.67;;;22.70;64.70;;;;;;6171965;28;80404;-63
2021/08/31 15:34:44;;;;;;;6.72;3.35;;;22.70;64.40;;;;;;6163815;28;80173;-63
2021/08/31 15:37:46;;;;;;;5.70;2.92;;;22.70;64.40;;;;;;6159388;28;81288;-64